Za jedním ze sedmi divů světa. S dopravcem EGYPTAIR se do Prahy po 13 letech vrací přímé spojení do Káhiry

09.04.24 Letiště Václava Havla Praha se od 9. července znovu dočká přímých letů do Káhiry. Do egyptské metropole bude třikrát týdně létat tamní vlajkový dopravce EGYPTAIR, vždy v úterý, čtvrtek a neděli. Linka zároveň nabídne zajímavé možnosti pro navazující lety do dalších 75 destinací dopravce EGYPTAIR včetně dalších měst v Egyptě a celé Africe, Číně či Indii Celý článek

Technologie Honeywell Aerospace umožní globální doručování zásilek ve stejný den i rychlejší a udržitelnější lety v městských oblastech a jejich okolí.

20.03.24 Společnost Honeywell, globální lídr v leteckých a vesmírných inovacích, oznámila, že její obchodní jednotka Advanced Air Mobility (AAM) zabývající se pokročilou leteckou mobilitou si již zajistila smlouvy v hodnotě přes 10 miliard amerických dolarů. Celý článek

Zprávy

aktualizováno

16.04.24 Celý článek

Všechny zprávy    

Všechny články

Kurzy

Kalendář akcí

ICAO English Exam / Zkouška - každý pátek v měsíci
19.04.24 Online Worldwide Campus or Flying Academy Beranových 130 Praha
ICAO English Exam / Zkouška - každý pátek v měsíci
26.04.24 Online Worldwide Campus or Flying Academy Beranových 130 Praha
ICAO English Exam / Zkouška - každý pátek v měsíci
03.05.24 Online Worldwide Campus or Flying Academy Beranových 130 Praha
ICAO English Exam / Zkouška - každý pátek v měsíci
10.05.24 Online Worldwide Campus or Flying Academy Beranových 130 Praha
Austro Control Exam PPL / ATPL
14.05.24 Flying Academy Beranových 130 Praha

Všechny akce

Zeptejte se odborníka

Zkušený personál jedné z největších leteckých škol Flying Academy je připraven Vám pomoci s jakýmikoli otázkami týkajícími se letectví.

Zeptejte se

Newsletter

Přihlaste se k odběru novinek.

Aktuální počasí

LKKB
LKKB 161400Z 27009KT 230V300 9999 FEW026 SCT080 09/02 Q1002 NOSIG

LKKV
LKKV 161400Z 24006KT 190V290 9999 -SHRA BKN011 OVC021 03/02 Q1001

LKMT
LKMT 161400Z 22015KT 9999 FEW039 09/02 Q1004 NOSIG

LKPR
LKPR 161400Z 22017KT 9999 SCT030 08/03 Q1002 BECMG -RA BKN020

LKTB
LKTB 161400Z 23008KT 200V260 CAVOK 10/M01 Q1005 NOSIG

Briefing

Kurzy měn

AUD AUD 15.22 Kč
EUR EUR 25.24 Kč
GBP GBP 29.53 Kč
HUF HUF 6.40 Kč
CHF CHF 25.98 Kč
USD USD 23.71 Kč